Time;durP1;ratioP1;P1;durP2;ratioP2;P2;SDS_P1;SDS_P2;PMS_P1;PMS_P2;Temp;Humidity;BMP_temperature;BMP_pressure;BME280_temperature;BME280_humidity;BME280_pressure;Samples;Min_cycle;Max_cycle;Signal;HPM_P1;HPM_P2
2021/01/20 00:02:24;;;;;;;10.07;7.93;;;6.80;99.90;;;;;;5091081;28;20431;-48
2021/01/20 00:04:50;;;;;;;10.53;8.70;;;7.00;99.90;;;;;;5091202;28;20438;-49
2021/01/20 00:07:18;;;;;;;9.17;7.50;;;6.70;99.90;;;;;;5091124;28;20426;-49
2021/01/20 00:09:44;;;;;;;11.90;8.30;;;6.80;99.90;;;;;;5106474;28;20484;-49
2021/01/20 00:12:11;;;;;;;9.00;7.23;;;6.80;99.90;;;;;;5091001;28;20521;-49
2021/01/20 00:14:37;;;;;;;10.33;7.70;;;6.90;99.90;;;;;;5090504;28;20449;-48
2021/01/20 00:17:04;;;;;;;8.80;7.90;;;6.90;99.90;;;;;;5091020;28;20789;-49
2021/01/20 00:19:30;;;;;;;11.63;8.10;;;7.00;99.90;;;;;;5090888;28;20464;-48
2021/01/20 00:21:57;;;;;;;9.10;8.03;;;6.70;99.90;;;;;;5089535;28;20442;-50
2021/01/20 00:24:25;;;;;;;11.37;7.93;;;6.90;99.90;;;;;;5090637;28;20850;-48
2021/01/20 00:26:51;;;;;;;10.73;8.10;;;6.90;99.90;;;;;;5091040;28;20750;-48
2021/01/20 00:29:18;;;;;;;10.87;7.80;;;6.50;99.90;;;;;;5090975;28;20429;-48
2021/01/20 00:31:44;;;;;;;13.90;7.90;;;6.70;99.90;;;;;;5090982;28;20433;-49
2021/01/20 00:34:11;;;;;;;10.83;8.57;;;6.70;99.90;;;;;;5090675;28;20412;-48
2021/01/20 00:36:38;;;;;;;9.50;7.33;;;6.80;99.90;;;;;;5090813;28;20432;-48
2021/01/20 00:39:04;;;;;;;11.73;8.03;;;6.80;99.90;;;;;;5090762;28;20822;-48
2021/01/20 00:41:32;;;;;;;12.50;8.63;;;6.60;99.90;;;;;;5090670;28;20424;-48
2021/01/20 00:43:58;;;;;;;10.60;7.63;;;6.40;99.90;;;;;;5090407;28;20426;-49
2021/01/20 00:46:25;;;;;;;10.80;8.33;;;6.50;99.90;;;;;;5090600;28;20520;-49
2021/01/20 00:48:52;;;;;;;10.52;8.65;;;6.50;99.90;;;;;;5090717;28;20436;-48
2021/01/20 00:51:18;;;;;;;10.87;8.27;;;6.50;99.90;;;;;;5089160;28;20235;-48
2021/01/20 00:53:45;;;;;;;11.83;9.10;;;6.00;99.90;;;;;;5089235;28;20446;-49
2021/01/20 00:56:12;;;;;;;13.33;9.67;;;6.40;99.90;;;;;;5089348;28;20860;-49
2021/01/20 00:58:41;;;;;;;12.00;9.03;;;6.50;99.90;;;;;;5092167;28;20822;-48
2021/01/20 01:01:07;;;;;;;9.80;7.60;;;6.50;99.90;;;;;;5092949;28;20444;-48
2021/01/20 01:03:35;;;;;;;12.83;9.10;;;6.40;99.90;;;;;;5093146;28;20445;-49
2021/01/20 01:06:02;;;;;;;12.47;9.33;;;6.40;99.90;;;;;;5092545;28;20416;-46
2021/01/20 01:08:28;;;;;;;15.40;9.60;;;6.40;99.90;;;;;;5094006;28;20441;-46
2021/01/20 01:10:58;;;;;;;12.97;9.73;;;6.60;99.90;;;;;;5092496;28;20811;-47
2021/01/20 01:13:34;;;;;;;11.50;9.10;;;6.30;99.90;;;;;;5109354;28;20863;-46
2021/01/20 01:16:21;;;;;;;12.03;8.80;;;6.40;99.90;;;;;;5093748;28;20475;-47
2021/01/20 01:18:47;;;;;;;10.70;9.17;;;6.60;99.90;;;;;;5094097;28;20896;-47
2021/01/20 01:21:14;;;;;;;9.63;7.90;;;6.40;99.90;;;;;;5093786;28;20436;-48
2021/01/20 01:23:40;;;;;;;11.60;8.77;;;6.60;99.90;;;;;;5092168;28;20449;-47
2021/01/20 01:26:07;;;;;;;9.70;8.00;;;6.50;99.90;;;;;;5093696;28;20426;-47
2021/01/20 01:28:33;;;;;;;9.97;8.87;;;6.50;99.90;;;;;;5094072;28;20449;-46
2021/01/20 01:31:24;;;;;;;13.60;9.00;;;6.40;99.90;;;;;;5082465;28;20535;-47
2021/01/20 01:33:50;;;;;;;10.00;8.30;;;6.40;99.90;;;;;;5093095;28;20426;-48
2021/01/20 01:36:19;;;;;;;10.50;8.53;;;6.40;99.90;;;;;;5091903;28;20951;-47
2021/01/20 01:38:47;;;;;;;11.63;9.00;;;6.70;99.90;;;;;;5092124;28;20449;-47
2021/01/20 01:41:21;;;;;;;12.70;8.90;;;6.40;99.90;;;;;;5092408;28;20768;-46
2021/01/20 01:43:52;;;;;;;10.10;8.97;;;6.50;99.90;;;;;;5093092;28;20403;-47
2021/01/20 01:46:26;;;;;;;9.80;8.07;;;6.50;99.90;;;;;;5109178;28;20467;-47
2021/01/20 01:49:07;;;;;;;10.30;7.90;;;6.40;99.90;;;;;;5091989;28;21016;-47
2021/01/20 01:51:33;;;;;;;11.17;8.80;;;6.50;99.90;;;;;;5091872;28;20626;-47
2021/01/20 01:54:27;;;;;;;9.40;8.40;;;6.50;99.90;;;;;;5068901;28;20744;-47
2021/01/20 01:56:55;;;;;;;10.90;8.87;;;6.40;99.90;;;;;;5091715;28;20478;-48
2021/01/20 01:59:25;;;;;;;10.70;9.17;;;6.60;99.90;;;;;;5091414;28;20428;-48
2021/01/20 02:01:53;;;;;;;11.77;10.00;;;6.70;99.90;;;;;;5091602;28;20420;-47
2021/01/20 02:04:28;;;;;;;12.70;9.20;;;6.60;99.90;;;;;;5091466;28;20954;-47
2021/01/20 02:07:02;;;;;;;9.87;8.87;;;6.60;99.90;;;;;;5091701;28;20446;-47
2021/01/20 02:09:35;;;;;;;10.27;8.97;;;6.50;99.90;;;;;;5108129;28;20870;-47
2021/01/20 02:12:54;;;;;;;11.80;9.33;;;6.80;99.90;;;;;;5091648;28;20449;-48
2021/01/20 02:15:35;;;;;;;13.23;9.50;;;6.70;99.90;;;;;;5033224;28;20968;-47
2021/01/20 02:18:07;;;;;;;10.13;9.07;;;6.80;99.90;;;;;;5033344;28;20825;-47
2021/01/20 02:21:38;;;;;;;13.07;9.37;;;6.90;99.90;;;;;;5082762;28;20949;-47
2021/01/20 02:24:34;;;;;;;10.27;9.10;;;6.80;99.90;;;;;;5080957;28;20444;-47
2021/01/20 02:27:27;;;;;;;10.97;9.83;;;6.70;99.90;;;;;;5091422;28;20446;-48
2021/01/20 02:30:06;;;;;;;11.03;9.50;;;6.60;99.90;;;;;;5091007;28;20462;-47
2021/01/20 02:32:55;;;;;;;11.37;10.00;;;6.50;99.90;;;;;;5091203;28;20461;-47
2021/01/20 02:35:53;;;;;;;12.03;10.00;;;6.80;99.90;;;;;;5089206;28;20515;-47
2021/01/20 02:38:21;;;;;;;11.20;10.10;;;6.50;99.90;;;;;;5091092;28;20578;-47
2021/01/20 02:41:01;;;;;;;11.73;10.47;;;6.50;99.90;;;;;;5090859;28;20587;-47
2021/01/20 02:43:43;;;;;;;11.00;9.90;;;6.70;99.90;;;;;;5090808;28;20509;-47
2021/01/20 02:46:34;;;;;;;12.73;11.40;;;6.60;99.90;;;;;;5092120;28;20446;-47
2021/01/20 02:49:09;;;;;;;11.73;10.47;;;6.80;99.90;;;;;;5090464;28;20453;-47
2021/01/20 02:51:46;;;;;;;13.50;10.93;;;6.80;99.90;;;;;;5090729;28;20993;-47
2021/01/20 02:54:33;;;;;;;12.50;11.20;;;6.50;99.90;;;;;;5091971;28;20467;-47
2021/01/20 02:57:19;;;;;;;11.23;10.13;;;6.80;99.90;;;;;;5092400;28;20428;-47
2021/01/20 02:59:56;;;;;;;12.00;10.63;;;6.50;99.90;;;;;;5091810;28;20440;-47
2021/01/20 03:02:40;;;;;;;11.03;9.93;;;6.40;99.90;;;;;;5091466;28;20433;-47
2021/01/20 03:05:10;;;;;;;11.87;10.43;;;6.50;99.90;;;;;;5091915;28;20426;-47
2021/01/20 03:07:39;;;;;;;14.35;11.82;;;6.70;99.90;;;;;;5091748;28;20462;-46
2021/01/20 03:10:08;;;;;;;12.15;10.95;;;6.60;99.90;;;;;;5091341;28;20496;-47
2021/01/20 03:12:36;;;;;;;11.95;10.75;;;6.40;99.90;;;;;;5091599;28;20194;-47
2021/01/20 03:15:09;;;;;;;11.68;10.57;;;6.60;99.90;;;;;;5091617;28;20204;-47
2021/01/20 03:17:36;;;;;;;12.17;10.97;;;6.70;99.90;;;;;;5091984;28;20211;-47
2021/01/20 03:20:04;;;;;;;11.98;10.70;;;6.40;99.90;;;;;;5091243;28;20425;-46
2021/01/20 03:22:30;;;;;;;13.70;11.50;;;6.50;99.90;;;;;;5091202;28;20195;-46
2021/01/20 03:24:57;;;;;;;13.30;11.47;;;6.50;99.90;;;;;;5091813;28;20411;-45
2021/01/20 03:27:23;;;;;;;11.60;10.40;;;6.50;99.90;;;;;;5091714;28;20415;-46
2021/01/20 03:29:50;;;;;;;13.40;12.10;;;6.40;99.90;;;;;;5092094;28;20465;-47
2021/01/20 03:32:16;;;;;;;12.40;11.10;;;6.50;99.90;;;;;;5091550;28;20194;-47
2021/01/20 03:34:43;;;;;;;13.33;11.77;;;6.60;99.90;;;;;;5091373;28;20219;-48
2021/01/20 03:37:11;;;;;;;11.63;10.40;;;6.40;99.90;;;;;;5091606;28;20448;-47
2021/01/20 03:39:37;;;;;;;11.87;10.60;;;6.50;99.90;;;;;;5091750;28;20445;-47
2021/01/20 03:42:04;;;;;;;12.35;11.05;;;6.60;99.90;;;;;;5091424;28;20446;-47
2021/01/20 03:44:30;;;;;;;14.90;11.07;;;6.40;99.90;;;;;;5090862;28;20195;-47
2021/01/20 03:46:57;;;;;;;12.17;10.87;;;6.40;99.90;;;;;;5090479;28;20437;-47
2021/01/20 03:49:23;;;;;;;9.85;8.85;;;6.70;99.90;;;;;;5091235;28;20388;-48
2021/01/20 03:51:50;;;;;;;10.82;9.75;;;6.50;99.90;;;;;;5091446;28;20200;-48
2021/01/20 03:54:17;;;;;;;11.75;10.65;;;6.50;99.90;;;;;;5090754;28;20197;-47
2021/01/20 03:56:43;;;;;;;11.15;9.90;;;6.50;99.90;;;;;;5091209;28;20226;-48
2021/01/20 03:59:10;;;;;;;10.93;9.80;;;6.40;99.90;;;;;;5092036;28;20268;-46
2021/01/20 04:01:36;;;;;;;10.00;9.00;;;6.50;99.90;;;;;;5091299;28;20573;-47
2021/01/20 04:04:03;;;;;;;11.27;9.70;;;6.50;99.90;;;;;;5090653;28;20487;-47
2021/01/20 04:06:34;;;;;;;13.30;9.80;;;6.40;99.90;;;;;;5090976;28;20915;-46
2021/01/20 04:09:00;;;;;;;10.57;8.90;;;6.50;99.90;;;;;;5090714;28;20463;-47
2021/01/20 04:11:28;;;;;;;13.45;9.75;;;6.40;99.90;;;;;;5091144;28;20473;-48
2021/01/20 04:13:54;;;;;;;11.07;9.98;;;6.50;99.90;;;;;;5090469;28;20195;-49
2021/01/20 04:16:21;;;;;;;12.95;9.68;;;6.40;99.90;;;;;;5090768;28;20218;-47
2021/01/20 04:18:47;;;;;;;10.60;8.73;;;6.40;99.90;;;;;;5090916;28;20188;-48
2021/01/20 04:21:14;;;;;;;11.73;8.50;;;6.30;99.90;;;;;;5090740;28;20949;-48
2021/01/20 04:23:40;;;;;;;11.40;8.63;;;6.10;99.90;;;;;;5090220;28;20432;-48
2021/01/20 04:26:08;;;;;;;12.97;8.87;;;6.20;99.90;;;;;;5090770;28;20396;-49
2021/01/20 04:28:36;;;;;;;10.20;7.50;;;6.10;99.90;;;;;;5090736;28;20504;-48
2021/01/20 04:31:04;;;;;;;11.77;7.50;;;6.40;99.90;;;;;;5090611;28;20423;-49
2021/01/20 04:33:31;;;;;;;8.53;7.40;;;6.40;99.90;;;;;;5092632;28;20411;-48
2021/01/20 04:35:58;;;;;;;9.63;7.63;;;6.10;99.90;;;;;;5093984;28;20487;-49
2021/01/20 04:38:24;;;;;;;9.57;6.75;;;6.20;99.90;;;;;;5095045;28;20424;-49
2021/01/20 04:40:52;;;;;;;10.50;6.57;;;6.10;99.90;;;;;;5094530;28;20243;-49
2021/01/20 04:43:19;;;;;;;8.00;7.10;;;6.20;99.90;;;;;;5092901;28;20457;-48
2021/01/20 04:45:48;;;;;;;10.03;7.87;;;6.30;99.90;;;;;;5094425;28;20431;-49
2021/01/20 04:48:16;;;;;;;8.63;6.97;;;6.10;99.90;;;;;;5094508;28;20462;-49
2021/01/20 04:50:45;;;;;;;9.23;6.97;;;6.40;99.90;;;;;;5094502;28;20761;-48
2021/01/20 04:53:14;;;;;;;10.77;6.40;;;6.30;99.90;;;;;;5094003;28;20425;-49
2021/01/20 04:55:43;;;;;;;11.00;7.53;;;6.30;99.90;;;;;;5094188;28;20470;-48
2021/01/20 04:58:10;;;;;;;7.23;6.40;;;6.10;99.90;;;;;;5094330;28;20428;-48
2021/01/20 05:00:37;;;;;;;7.40;6.20;;;6.10;99.90;;;;;;5094037;28;20450;-49
2021/01/20 05:03:06;;;;;;;8.23;6.60;;;6.30;99.90;;;;;;5093689;28;20499;-47
2021/01/20 05:05:33;;;;;;;9.93;6.70;;;6.10;99.90;;;;;;5092671;28;20441;-48
2021/01/20 05:08:00;;;;;;;7.73;6.57;;;6.30;99.90;;;;;;5094283;28;20436;-48
2021/01/20 05:10:27;;;;;;;8.55;6.97;;;6.00;99.90;;;;;;5093759;28;20464;-51
2021/01/20 05:12:54;;;;;;;8.20;5.90;;;6.20;99.90;;;;;;5093351;28;20216;-48
2021/01/20 05:15:31;;;;;;;7.63;6.00;;;6.00;99.90;;;;;;5093490;28;20508;-48
2021/01/20 05:17:58;;;;;;;8.00;5.90;;;6.00;99.90;;;;;;5093810;28;20795;-48
2021/01/20 05:20:31;;;;;;;9.50;6.43;;;6.40;99.90;;;;;;5093887;28;20539;-49
2021/01/20 05:22:59;;;;;;;11.18;7.30;;;6.20;99.90;;;;;;5093361;28;20517;-48
2021/01/20 05:25:30;;;;;;;9.38;6.85;;;6.40;99.90;;;;;;5093433;28;20192;-49
2021/01/20 05:27:56;;;;;;;8.90;6.43;;;6.00;99.90;;;;;;5093808;28;20609;-48
2021/01/20 05:30:23;;;;;;;9.97;5.90;;;6.10;99.90;;;;;;5092221;28;20494;-48
2021/01/20 05:32:59;;;;;;;10.70;6.63;;;6.20;99.90;;;;;;5093236;28;20742;-48
2021/01/20 05:35:26;;;;;;;8.40;6.50;;;6.30;99.90;;;;;;5094078;28;20575;-48
2021/01/20 05:37:53;;;;;;;13.13;6.23;;;6.20;99.90;;;;;;5094074;28;20444;-48
2021/01/20 05:40:20;;;;;;;8.30;6.30;;;6.00;99.90;;;;;;5091879;28;20472;-48
2021/01/20 05:42:49;;;;;;;11.27;7.18;;;6.20;99.90;;;;;;5092649;28;20400;-48
2021/01/20 05:45:17;;;;;;;12.97;10.30;;;6.30;99.90;;;;;;5093217;28;20198;-49
2021/01/20 05:48:04;;;;;;;13.02;9.80;;;6.20;99.90;;;;;;5092960;28;20962;-48
2021/01/20 05:50:30;;;;;;;11.60;8.38;;;6.40;99.90;;;;;;5092939;28;20585;-48
2021/01/20 05:53:11;;;;;;;14.17;11.97;;;5.70;99.90;;;;;;5092671;28;20200;-48
2021/01/20 05:55:39;;;;;;;10.67;8.80;;;6.10;99.90;;;;;;5092893;28;20453;-50
2021/01/20 05:58:06;;;;;;;12.67;7.73;;;5.60;99.90;;;;;;5092785;28;20887;-48
2021/01/20 06:00:33;;;;;;;11.17;7.70;;;6.10;99.90;;;;;;5092935;28;20427;-49
2021/01/20 06:03:00;;;;;;;10.73;8.00;;;6.10;99.90;;;;;;5092740;28;20486;-49
2021/01/20 06:05:27;;;;;;;8.30;7.10;;;5.60;99.90;;;;;;5092843;28;20460;-49
2021/01/20 06:07:55;;;;;;;11.80;7.83;;;6.20;99.90;;;;;;5092438;28;20441;-49
2021/01/20 06:10:23;;;;;;;8.83;7.17;;;6.20;99.90;;;;;;5092510;28;20471;-49
2021/01/20 06:12:51;;;;;;;11.07;6.68;;;6.00;99.90;;;;;;5091968;28;20408;-49
2021/01/20 06:15:18;;;;;;;7.65;6.30;;;5.70;99.90;;;;;;5092676;28;20241;-49
2021/01/20 06:17:48;;;;;;;9.52;6.60;;;5.80;99.90;;;;;;5090947;28;20207;-49
2021/01/20 06:20:20;;;;;;;9.07;6.28;;;6.10;99.90;;;;;;5092393;28;20210;-48
2021/01/20 06:22:51;;;;;;;9.17;6.90;;;5.70;99.90;;;;;;5090892;28;20194;-50
2021/01/20 06:25:26;;;;;;;11.25;7.50;;;5.90;99.90;;;;;;5091087;28;20419;-49
2021/01/20 06:27:56;;;;;;;10.43;7.95;;;6.10;99.90;;;;;;5092332;28;20654;-48
2021/01/20 06:30:28;;;;;;;12.32;9.60;;;6.00;99.90;;;;;;5092526;28;20223;-48
2021/01/20 06:32:56;;;;;;;40.60;17.70;;;5.40;99.90;;;;;;5092160;28;20202;-50
2021/01/20 06:35:22;;;;;;;17.23;9.30;;;6.00;99.90;;;;;;5093267;28;20480;-47
2021/01/20 06:37:50;;;;;;;23.33;16.73;;;5.80;99.90;;;;;;5091653;28;20501;-49
2021/01/20 06:40:39;;;;;;;10.80;8.50;;;6.00;99.90;;;;;;5091540;28;20466;-48
2021/01/20 06:43:33;;;;;;;6.97;5.88;;;6.00;99.90;;;;;;5091211;28;20192;-49
2021/01/20 06:46:17;;;;;;;10.98;5.60;;;6.20;99.90;;;;;;5082255;28;20207;-49
2021/01/20 06:49:09;;;;;;;7.23;6.00;;;6.20;99.90;;;;;;5091652;28;20200;-49
2021/01/20 06:51:36;;;;;;;7.25;5.82;;;6.10;99.90;;;;;;5091776;28;20444;-50
2021/01/20 06:54:11;;;;;;;8.20;5.37;;;6.20;99.90;;;;;;5089566;28;20224;-48
2021/01/20 06:56:41;;;;;;;7.82;5.60;;;6.20;99.90;;;;;;5090660;28;20472;-48
2021/01/20 06:59:21;;;;;;;8.57;5.43;;;6.30;99.90;;;;;;5091677;28;20202;-48
2021/01/20 07:02:08;;;;;;;7.30;5.85;;;6.00;99.90;;;;;;5091756;28;20403;-48
2021/01/20 07:04:57;;;;;;;8.77;5.63;;;6.10;99.90;;;;;;5091092;28;20238;-49
2021/01/20 07:07:53;;;;;;;6.63;5.60;;;6.00;99.90;;;;;;5091265;28;20434;-49
2021/01/20 07:10:20;;;;;;;8.10;5.70;;;5.90;99.90;;;;;;5091186;28;20457;-49
2021/01/20 07:13:21;;;;;;;9.77;6.68;;;5.90;99.90;;;;;;5090924;28;20260;-48
2021/01/20 07:15:53;;;;;;;8.13;5.13;;;6.00;99.90;;;;;;5088739;28;20317;-49
2021/01/20 07:18:22;;;;;;;7.10;5.40;;;6.10;99.90;;;;;;5091650;28;20459;-49
2021/01/20 07:20:49;;;;;;;6.05;5.20;;;6.20;99.90;;;;;;5091491;28;20539;-47
2021/01/20 07:23:16;;;;;;;11.25;5.40;;;6.00;99.90;;;;;;5091535;28;20663;-48
2021/01/20 07:25:46;;;;;;;8.33;5.20;;;6.10;99.90;;;;;;5091298;28;20217;-49
2021/01/20 07:28:13;;;;;;;7.93;5.47;;;5.90;99.90;;;;;;5089989;28;20471;-49
2021/01/20 07:30:40;;;;;;;8.88;5.63;;;6.20;99.90;;;;;;5091000;28;20981;-49
2021/01/20 07:33:20;;;;;;;7.70;5.50;;;6.00;99.90;;;;;;5091047;28;20639;-49
2021/01/20 07:35:47;;;;;;;11.07;5.57;;;6.00;99.90;;;;;;5091354;28;20210;-49
2021/01/20 07:38:14;;;;;;;13.77;9.07;;;6.00;99.90;;;;;;5091374;28;20654;-49
2021/01/20 07:40:43;;;;;;;8.47;6.00;;;6.00;99.90;;;;;;5089762;28;20431;-49
2021/01/20 07:43:23;;;;;;;11.77;5.20;;;6.00;99.90;;;;;;5090453;28;20454;-49
2021/01/20 07:45:52;;;;;;;8.53;5.40;;;6.00;99.90;;;;;;5091352;28;20425;-49
2021/01/20 07:48:28;;;;;;;6.63;5.03;;;6.10;99.90;;;;;;5091310;28;20509;-49
2021/01/20 07:50:55;;;;;;;10.00;5.97;;;6.10;99.90;;;;;;5090816;28;20423;-49
2021/01/20 07:53:21;;;;;;;6.57;4.90;;;6.10;99.90;;;;;;5090681;28;20422;-48
2021/01/20 07:55:54;;;;;;;6.50;5.10;;;6.20;99.90;;;;;;5090949;28;20485;-48
2021/01/20 07:58:25;;;;;;;5.43;4.03;;;6.00;99.90;;;;;;5090413;28;20438;-47
2021/01/20 08:00:53;;;;;;;8.38;5.85;;;6.50;99.90;;;;;;5090240;28;20427;-46
2021/01/20 08:03:34;;;;;;;6.30;4.50;;;6.40;99.90;;;;;;5089991;28;20271;-46
2021/01/20 08:06:02;;;;;;;6.67;4.50;;;6.50;99.90;;;;;;5090783;28;20440;-47
2021/01/20 08:08:28;;;;;;;7.80;4.37;;;6.20;99.90;;;;;;5094936;28;20412;-48
2021/01/20 08:11:00;;;;;;;8.48;4.45;;;6.50;99.90;;;;;;5094367;28;20466;-48
2021/01/20 08:13:30;;;;;;;5.07;4.40;;;5.90;99.90;;;;;;5094347;28;20275;-48
2021/01/20 08:15:58;;;;;;;7.23;4.50;;;6.50;99.90;;;;;;5094638;28;20496;-48
2021/01/20 08:18:25;;;;;;;8.03;5.00;;;6.60;99.90;;;;;;5094834;28;20434;-47
2021/01/20 08:20:52;;;;;;;5.77;4.03;;;6.70;99.90;;;;;;5094568;28;20427;-47
2021/01/20 08:23:42;;;;;;;5.10;4.30;;;6.70;99.90;;;;;;5094346;28;20429;-48
2021/01/20 08:26:09;;;;;;;9.30;4.77;;;6.80;99.90;;;;;;5094293;28;20426;-48
2021/01/20 08:28:35;;;;;;;7.00;4.13;;;6.80;99.90;;;;;;5094541;28;20483;-48
2021/01/20 08:31:22;;;;;;;8.10;5.57;;;6.80;99.90;;;;;;5094479;28;20452;-48
2021/01/20 08:33:48;;;;;;;5.37;4.40;;;7.00;99.90;;;;;;5094150;28;20441;-48
2021/01/20 08:36:23;;;;;;;6.47;4.93;;;6.80;99.90;;;;;;5094181;28;20514;-48
2021/01/20 08:39:05;;;;;;;6.93;4.50;;;7.00;99.90;;;;;;5094449;28;20447;-47
2021/01/20 08:41:32;;;;;;;6.13;4.00;;;6.90;99.90;;;;;;5094213;28;20567;-47
2021/01/20 08:44:14;;;;;;;6.10;4.87;;;6.90;99.90;;;;;;5093768;28;20916;-48
2021/01/20 08:46:42;;;;;;;5.83;5.23;;;7.20;99.90;;;;;;5093984;28;20438;-48
2021/01/20 08:49:08;;;;;;;9.07;5.37;;;7.40;99.90;;;;;;5094254;28;20402;-48
2021/01/20 08:51:35;;;;;;;10.10;4.80;;;7.20;99.90;;;;;;5091736;28;20484;-48
2021/01/20 08:54:11;;;;;;;6.27;4.70;;;7.10;99.90;;;;;;5093452;28;20954;-48
2021/01/20 08:56:37;;;;;;;5.40;4.40;;;7.20;99.90;;;;;;5093229;28;20456;-49
2021/01/20 08:59:04;;;;;;;6.30;5.13;;;7.20;99.90;;;;;;5093491;28;20780;-47
2021/01/20 09:01:30;;;;;;;6.63;4.80;;;7.40;99.90;;;;;;5094149;28;20462;-47
2021/01/20 09:03:59;;;;;;;7.80;4.50;;;7.60;99.90;;;;;;5093812;28;20754;-48
2021/01/20 09:06:27;;;;;;;5.63;4.13;;;7.00;99.90;;;;;;5093392;28;20409;-48
2021/01/20 09:08:54;;;;;;;6.07;5.17;;;7.00;99.90;;;;;;5080899;28;20947;-48
2021/01/20 09:11:21;;;;;;;6.47;4.27;;;7.20;99.90;;;;;;5072512;28;20983;-47
2021/01/20 09:13:47;;;;;;;7.60;5.33;;;7.00;99.90;;;;;;5073247;28;20440;-47
2021/01/20 09:16:14;;;;;;;9.50;5.57;;;7.40;99.90;;;;;;5088458;28;20871;-48
2021/01/20 09:18:40;;;;;;;6.10;5.43;;;7.40;99.90;;;;;;5091352;28;20579;-46
2021/01/20 09:21:08;;;;;;;6.90;5.43;;;7.50;99.90;;;;;;5091988;28;20536;-46
2021/01/20 09:23:35;;;;;;;9.77;5.93;;;6.90;99.90;;;;;;5093446;28;20458;-46
2021/01/20 09:26:01;;;;;;;6.67;5.40;;;7.20;99.90;;;;;;5093334;28;20417;-48
2021/01/20 09:28:28;;;;;;;5.73;4.77;;;7.40;99.90;;;;;;5093694;28;20431;-48
2021/01/20 09:30:54;;;;;;;5.60;3.80;;;7.90;99.90;;;;;;5093469;28;20466;-47
2021/01/20 09:33:21;;;;;;;5.83;5.00;;;7.80;99.90;;;;;;5092902;28;20406;-46
2021/01/20 09:35:48;;;;;;;7.30;4.23;;;7.80;99.90;;;;;;5093040;28;20563;-48
2021/01/20 09:38:31;;;;;;;9.53;5.17;;;7.70;99.90;;;;;;5093530;28;20414;-47
2021/01/20 09:41:00;;;;;;;9.40;5.90;;;7.60;99.90;;;;;;5093029;28;20426;-48
2021/01/20 09:43:27;;;;;;;8.23;4.87;;;7.50;99.90;;;;;;5092855;28;20402;-48
2021/01/20 09:45:53;;;;;;;6.77;5.63;;;7.80;99.90;;;;;;5092551;28;20407;-46
2021/01/20 09:48:21;;;;;;;9.23;5.50;;;7.80;99.90;;;;;;5092651;28;20446;-48
2021/01/20 09:50:48;;;;;;;9.33;5.20;;;7.70;99.90;;;;;;5092581;28;20452;-48
2021/01/20 09:53:16;;;;;;;9.33;4.60;;;7.70;99.90;;;;;;5092361;28;20496;-48
2021/01/20 09:55:43;;;;;;;7.07;4.70;;;7.90;99.90;;;;;;5092433;28;20450;-48
2021/01/20 09:58:10;;;;;;;7.10;5.20;;;7.80;99.90;;;;;;5092864;28;20879;-48
2021/01/20 10:00:37;;;;;;;6.63;5.10;;;7.80;99.90;;;;;;5092448;28;20438;-48
2021/01/20 10:03:06;;;;;;;6.43;4.83;;;7.80;99.90;;;;;;5093196;28;20424;-47
2021/01/20 10:05:33;;;;;;;13.77;4.37;;;7.90;99.90;;;;;;5092689;28;20554;-47
2021/01/20 10:08:00;;;;;;;7.43;4.80;;;8.20;99.90;;;;;;5092200;28;20457;-47
2021/01/20 10:10:26;;;;;;;7.43;4.93;;;7.90;99.90;;;;;;5092564;28;20438;-49
2021/01/20 10:12:54;;;;;;;6.17;3.90;;;8.10;99.90;;;;;;5091849;28;20418;-49
2021/01/20 10:15:21;;;;;;;9.60;4.50;;;8.00;99.90;;;;;;5084711;28;20477;-48
2021/01/20 10:17:50;;;;;;;6.03;4.43;;;8.20;99.90;;;;;;5071971;28;20407;-49
2021/01/20 10:20:17;;;;;;;10.40;5.47;;;8.20;99.90;;;;;;5071948;28;20852;-49
2021/01/20 10:22:44;;;;;;;6.43;4.40;;;7.80;99.90;;;;;;5072191;28;20391;-49
2021/01/20 10:25:11;;;;;;;8.60;4.47;;;8.20;99.90;;;;;;5072354;28;20939;-47
2021/01/20 10:27:38;;;;;;;7.67;4.77;;;8.10;99.90;;;;;;5092377;28;20442;-48
2021/01/20 10:30:07;;;;;;;7.78;4.43;;;8.40;99.90;;;;;;5090880;28;20472;-49
2021/01/20 10:32:33;;;;;;;13.90;5.23;;;8.80;99.90;;;;;;5090592;28;20530;-48
2021/01/20 10:35:00;;;;;;;8.23;4.70;;;8.00;99.90;;;;;;5087682;28;20812;-49
2021/01/20 10:37:26;;;;;;;6.30;4.20;;;8.60;99.90;;;;;;5091993;28;20443;-49
2021/01/20 10:39:53;;;;;;;6.70;3.57;;;8.80;99.90;;;;;;5092018;28;20559;-49
2021/01/20 10:42:19;;;;;;;8.13;3.80;;;8.90;99.90;;;;;;5091911;28;20588;-49
2021/01/20 10:44:47;;;;;;;6.17;3.70;;;8.80;99.90;;;;;;5092221;28;20456;-48
2021/01/20 10:47:14;;;;;;;7.30;4.90;;;8.80;99.90;;;;;;5091191;28;20758;-49
2021/01/20 10:49:41;;;;;;;6.60;4.30;;;8.60;99.90;;;;;;5092342;28;20555;-50
2021/01/20 10:52:07;;;;;;;6.73;5.00;;;8.80;99.90;;;;;;5091934;28;20407;-49
2021/01/20 10:54:34;;;;;;;6.93;4.43;;;8.80;99.90;;;;;;5091313;28;20443;-49
2021/01/20 10:57:03;;;;;;;7.83;4.60;;;8.60;99.90;;;;;;5091515;28;20911;-49
2021/01/20 10:59:40;;;;;;;6.53;4.40;;;8.70;99.90;;;;;;5091239;28;20421;-50
2021/01/20 11:02:07;;;;;;;8.20;4.50;;;8.80;99.90;;;;;;5091656;28;20437;-47
2021/01/20 11:04:34;;;;;;;9.97;4.40;;;8.70;99.90;;;;;;5089689;28;20821;-48
2021/01/20 11:07:01;;;;;;;13.07;4.70;;;8.80;99.90;;;;;;5091537;28;20432;-49
2021/01/20 11:09:30;;;;;;;8.60;5.60;;;8.90;99.90;;;;;;5091208;28;20506;-49
2021/01/20 11:11:57;;;;;;;11.67;5.17;;;9.00;99.90;;;;;;5091787;28;20439;-50
2021/01/20 11:14:23;;;;;;;8.47;5.10;;;9.20;99.90;;;;;;5091342;28;20919;-49
2021/01/20 11:16:52;;;;;;;10.13;5.53;;;9.00;99.90;;;;;;5071491;28;20952;-50
2021/01/20 11:19:19;;;;;;;10.93;4.33;;;8.90;99.90;;;;;;5070710;28;20423;-49
2021/01/20 11:21:46;;;;;;;12.53;4.30;;;8.80;99.90;;;;;;5071274;28;20796;-49
2021/01/20 11:24:17;;;;;;;11.80;6.03;;;9.20;99.90;;;;;;5070935;28;20515;-49
2021/01/20 11:26:45;;;;;;;12.60;4.70;;;9.10;99.90;;;;;;5070867;28;20441;-50
2021/01/20 11:29:11;;;;;;;16.50;5.33;;;9.20;99.90;;;;;;5071316;28;20453;-49
2021/01/20 11:31:38;;;;;;;7.63;4.80;;;9.40;99.90;;;;;;5071111;28;20936;-49
2021/01/20 11:34:05;;;;;;;13.87;5.80;;;9.60;99.90;;;;;;5070628;28;20396;-49
2021/01/20 11:36:31;;;;;;;5.67;4.40;;;9.80;99.90;;;;;;5070488;28;20560;-49
2021/01/20 11:38:59;;;;;;;8.70;4.43;;;9.80;99.90;;;;;;5070590;28;20425;-50
2021/01/20 11:41:25;;;;;;;4.60;4.07;;;9.60;99.90;;;;;;5070423;28;20620;-48
2021/01/20 11:43:52;;;;;;;14.90;4.70;;;9.80;99.90;;;;;;5070699;28;20426;-49
2021/01/20 11:46:20;;;;;;;12.73;4.53;;;9.80;99.90;;;;;;5071079;28;20422;-49
2021/01/20 11:48:48;;;;;;;13.47;4.80;;;9.90;99.90;;;;;;5072104;28;20429;-48
2021/01/20 11:51:14;;;;;;;7.73;4.70;;;9.90;99.90;;;;;;5070132;28;20472;-49
2021/01/20 11:53:41;;;;;;;10.40;3.70;;;9.60;99.90;;;;;;5085751;28;20455;-48
2021/01/20 11:56:09;;;;;;;6.50;3.40;;;9.80;99.90;;;;;;5071097;28;20473;-48
2021/01/20 11:58:35;;;;;;;6.20;3.43;;;9.70;99.90;;;;;;5070981;28;20457;-49
2021/01/20 12:01:02;;;;;;;5.47;3.20;;;10.00;99.90;;;;;;5089365;28;20464;-49
2021/01/20 12:03:28;;;;;;;3.83;3.20;;;9.80;99.90;;;;;;5090728;28;20771;-48
2021/01/20 12:05:55;;;;;;;4.23;3.17;;;9.80;99.90;;;;;;5088940;28;20432;-48
2021/01/20 12:08:22;;;;;;;7.80;3.50;;;9.90;99.90;;;;;;5089090;28;20498;-49
2021/01/20 12:10:48;;;;;;;10.70;3.70;;;9.80;99.90;;;;;;5090836;28;20435;-49
2021/01/20 12:13:17;;;;;;;5.33;3.30;;;9.80;99.90;;;;;;5090252;28;20429;-48
2021/01/20 12:15:44;;;;;;;5.53;3.40;;;9.80;99.90;;;;;;5079445;28;20475;-48
2021/01/20 12:18:11;;;;;;;14.63;3.50;;;9.70;99.90;;;;;;5068102;28;20459;-49
2021/01/20 12:20:37;;;;;;;14.50;4.27;;;10.10;99.90;;;;;;5069912;28;20817;-48
2021/01/20 12:23:04;;;;;;;8.20;3.53;;;9.80;99.90;;;;;;5069582;28;20458;-49
2021/01/20 12:25:30;;;;;;;5.63;3.63;;;9.80;99.90;;;;;;5068784;28;20424;-49
2021/01/20 12:27:57;;;;;;;14.80;3.97;;;10.00;99.90;;;;;;5070004;28;20408;-47
2021/01/20 12:30:25;;;;;;;7.97;3.60;;;10.00;99.90;;;;;;5069804;28;20439;-47
2021/01/20 12:32:51;;;;;;;7.90;3.50;;;10.10;99.90;;;;;;5069424;28;20460;-48
2021/01/20 12:35:18;;;;;;;13.60;3.60;;;9.90;99.90;;;;;;5069676;28;20408;-48
2021/01/20 12:37:45;;;;;;;3.90;3.13;;;10.20;99.90;;;;;;5069923;28;20419;-47
2021/01/20 12:40:12;;;;;;;8.13;3.87;;;10.00;99.90;;;;;;5069734;28;20811;-48
2021/01/20 12:42:39;;;;;;;3.93;3.03;;;10.20;99.90;;;;;;5069451;28;20902;-48
2021/01/20 12:45:07;;;;;;;7.10;3.90;;;9.50;99.90;;;;;;5069877;28;20503;-48
2021/01/20 12:47:34;;;;;;;5.43;3.20;;;10.20;99.90;;;;;;5069557;28;20474;-48
2021/01/20 12:50:01;;;;;;;4.73;2.93;;;10.10;99.80;;;;;;5068366;28;20842;-48
2021/01/20 12:52:27;;;;;;;6.80;4.07;;;10.50;99.70;;;;;;5079044;28;20419;-47
2021/01/20 12:54:54;;;;;;;4.33;2.80;;;10.20;99.90;;;;;;5093756;28;20479;-48
2021/01/20 12:57:21;;;;;;;9.47;5.53;;;10.10;99.90;;;;;;5093870;28;20567;-47
2021/01/20 12:59:47;;;;;;;7.00;3.40;;;10.20;99.90;;;;;;5093420;28;20464;-48
2021/01/20 13:02:14;;;;;;;5.83;3.03;;;10.30;99.90;;;;;;5093552;28;20441;-47
2021/01/20 13:04:41;;;;;;;8.10;3.60;;;10.00;99.50;;;;;;5093433;28;20406;-48
2021/01/20 13:07:08;;;;;;;7.40;3.20;;;10.30;99.40;;;;;;5092012;28;20476;-48